createdAt,value
2017-12-10T00:00:39.336Z,97.60
2017-12-10T00:03:06.275Z,97.70
2017-12-10T00:05:33.168Z,97.60
2017-12-10T00:07:59.328Z,97.60
2017-12-10T00:10:25.494Z,97.40
2017-12-10T00:12:51.646Z,97.40
2017-12-10T00:15:17.808Z,97.60
2017-12-10T00:17:43.961Z,97.70
2017-12-10T00:20:10.124Z,97.80
2017-12-10T00:22:36.283Z,97.80
2017-12-10T00:25:03.202Z,97.80
2017-12-10T00:27:29.384Z,97.80
2017-12-10T00:29:55.551Z,97.70
2017-12-10T00:32:21.718Z,97.50
2017-12-10T00:34:48.656Z,97.80
2017-12-10T00:37:15.562Z,97.80
2017-12-10T00:39:41.726Z,97.80
2017-12-10T00:42:08.651Z,97.60
2017-12-10T00:44:34.805Z,97.60
2017-12-10T00:47:00.966Z,97.70
2017-12-10T00:49:27.123Z,97.60
2017-12-10T00:51:53.307Z,97.50
2017-12-10T00:54:19.470Z,97.60
2017-12-10T00:56:45.605Z,97.80
2017-12-10T00:59:11.802Z,98.00
2017-12-10T01:01:38.011Z,98.10
2017-12-10T01:04:04.150Z,98.10
2017-12-10T01:06:30.353Z,98.00
2017-12-10T01:08:56.498Z,98.00
2017-12-10T01:11:22.661Z,98.10
2017-12-10T01:13:48.838Z,97.80
2017-12-10T01:16:14.966Z,98.00
2017-12-10T01:18:41.142Z,97.80
2017-12-10T01:21:07.308Z,97.80
2017-12-10T01:23:33.469Z,97.80
2017-12-10T01:25:59.626Z,97.80
2017-12-10T01:28:25.768Z,97.80
2017-12-10T01:30:52.669Z,97.70
2017-12-10T01:33:18.848Z,97.70
2017-12-10T01:35:45.053Z,97.50
2017-12-10T01:38:11.231Z,97.50
2017-12-10T01:40:37.407Z,97.30
2017-12-10T01:43:03.548Z,97.60
2017-12-10T01:45:30.447Z,97.30
2017-12-10T01:47:56.629Z,97.30
2017-12-10T01:50:22.814Z,97.10
2017-12-10T01:52:49.004Z,97.00
2017-12-10T01:55:15.138Z,96.80
2017-12-10T01:57:41.299Z,97.10
2017-12-10T02:00:07.452Z,97.10
2017-12-10T02:02:33.646Z,97.30
2017-12-10T02:04:59.782Z,97.40
2017-12-10T02:07:25.932Z,97.40
2017-12-10T02:09:52.090Z,97.40
2017-12-10T02:12:18.262Z,97.50
2017-12-10T02:14:45.224Z,97.40
2017-12-10T02:17:11.372Z,97.40
2017-12-10T02:19:37.519Z,97.40
2017-12-10T02:22:03.688Z,97.50
2017-12-10T02:24:29.871Z,97.50
2017-12-10T02:26:56.041Z,97.50
2017-12-10T02:29:22.930Z,97.40
2017-12-10T02:31:49.118Z,97.40
2017-12-10T02:34:16.037Z,97.60
2017-12-10T02:36:42.179Z,97.60
2017-12-10T02:39:09.090Z,97.60
2017-12-10T02:41:35.277Z,97.60
2017-12-10T02:44:01.408Z,97.50
2017-12-10T02:46:27.604Z,97.40
2017-12-10T02:48:54.508Z,97.30
2017-12-10T02:51:20.674Z,97.30
2017-12-10T02:53:47.577Z,97.40
2017-12-10T02:56:13.702Z,97.40
2017-12-10T02:58:39.870Z,97.40
2017-12-10T03:01:06.751Z,97.40
2017-12-10T03:03:32.943Z,97.40
2017-12-10T03:05:59.825Z,97.20
2017-12-10T03:08:26.020Z,97.20
2017-12-10T03:10:52.178Z,97.30
2017-12-10T03:13:18.326Z,97.10
2017-12-10T03:15:44.495Z,96.80
2017-12-10T03:18:10.636Z,96.80
2017-12-10T03:20:36.795Z,96.80
2017-12-10T03:23:02.959Z,96.70
2017-12-10T03:25:29.894Z,96.30
2017-12-10T03:27:56.766Z,96.10
2017-12-10T03:30:22.932Z,96.10
2017-12-10T03:32:49.095Z,95.90
2017-12-10T03:35:15.975Z,95.90
2017-12-10T03:37:42.129Z,95.90
2017-12-10T03:40:08.258Z,95.60
2017-12-10T03:42:34.391Z,95.70
2017-12-10T03:45:00.546Z,95.40
2017-12-10T03:47:27.419Z,95.00
2017-12-10T03:49:53.633Z,95.00
2017-12-10T03:52:19.771Z,94.70
2017-12-10T03:54:45.903Z,94.60
2017-12-10T03:57:12.062Z,94.60
2017-12-10T03:59:38.213Z,94.60
2017-12-10T04:02:04.379Z,94.70
2017-12-10T04:04:30.593Z,94.20
2017-12-10T04:06:56.758Z,94.40
2017-12-10T04:09:22.898Z,94.60
2017-12-10T04:11:49.080Z,94.40
2017-12-10T04:14:15.240Z,94.30
2017-12-10T04:16:41.444Z,94.20
2017-12-10T04:19:07.613Z,94.10
2017-12-10T04:21:34.495Z,93.90
2017-12-10T04:24:00.654Z,93.90
2017-12-10T04:26:26.812Z,93.90
2017-12-10T04:28:53.715Z,93.60
2017-12-10T04:31:19.912Z,93.60
2017-12-10T04:33:46.076Z,93.60
2017-12-10T04:36:12.244Z,93.50
2017-12-10T04:38:39.120Z,93.10
2017-12-10T04:41:05.316Z,93.10
2017-12-10T04:43:31.530Z,93.40
2017-12-10T04:45:58.439Z,92.70
2017-12-10T04:48:24.602Z,92.70
2017-12-10T04:50:51.490Z,92.70
2017-12-10T04:53:17.638Z,92.70
2017-12-10T04:55:43.801Z,92.80
2017-12-10T04:58:09.956Z,92.90
2017-12-10T05:00:36.095Z,92.50
2017-12-10T05:03:02.247Z,92.60
2017-12-10T05:05:28.451Z,92.30
2017-12-10T05:07:54.586Z,92.10
2017-12-10T05:10:20.796Z,92.30
2017-12-10T05:12:46.957Z,92.30
2017-12-10T05:15:13.182Z,92.20
2017-12-10T05:17:39.368Z,92.10
2017-12-10T05:20:05.518Z,91.90
2017-12-10T05:22:31.696Z,91.80
2017-12-10T05:24:57.857Z,92.00
2017-12-10T05:27:24.024Z,92.20
2017-12-10T05:29:50.942Z,91.90
2017-12-10T05:32:17.099Z,91.90
2017-12-10T05:34:44.023Z,91.80
2017-12-10T05:37:10.179Z,91.80
2017-12-10T05:39:36.306Z,92.90
2017-12-10T05:42:02.463Z,92.00
2017-12-10T05:44:28.600Z,91.90
2017-12-10T05:46:54.797Z,91.90
2017-12-10T05:49:20.951Z,91.90
2017-12-10T05:51:47.080Z,91.80
2017-12-10T05:54:13.251Z,91.70
2017-12-10T05:56:39.414Z,91.70
2017-12-10T05:59:05.576Z,91.70
2017-12-10T06:01:31.736Z,91.50
2017-12-10T06:03:57.898Z,91.70
2017-12-10T06:06:24.053Z,91.60
2017-12-10T06:08:50.216Z,91.40
2017-12-10T06:11:16.416Z,91.40
2017-12-10T06:13:43.332Z,91.60
2017-12-10T06:16:09.502Z,91.50
2017-12-10T06:18:35.689Z,91.50
2017-12-10T06:21:01.844Z,91.40
2017-12-10T06:23:28.751Z,91.30
2017-12-10T06:25:54.909Z,91.30
2017-12-10T06:28:21.071Z,91.20
2017-12-10T06:30:47.290Z,91.50
2017-12-10T06:33:13.440Z,91.50
2017-12-10T06:35:39.596Z,91.50
2017-12-10T06:38:05.788Z,91.50
2017-12-10T06:40:31.953Z,91.30
2017-12-10T06:42:58.135Z,91.40
2017-12-10T06:45:24.293Z,91.50
2017-12-10T06:47:50.456Z,92.20
2017-12-10T06:50:16.655Z,91.50
2017-12-10T06:52:42.808Z,91.80
2017-12-10T06:55:08.973Z,91.50
2017-12-10T06:57:35.137Z,91.50
2017-12-10T07:00:01.286Z,91.50
2017-12-10T07:02:27.433Z,91.70
2017-12-10T07:04:53.610Z,91.40
2017-12-10T07:07:19.767Z,91.40
2017-12-10T07:09:45.932Z,91.60
2017-12-10T07:12:12.070Z,91.50
2017-12-10T07:14:38.238Z,91.30
2017-12-10T07:17:05.128Z,91.50
2017-12-10T07:19:31.267Z,91.50
2017-12-10T07:21:57.426Z,91.20
2017-12-10T07:24:24.311Z,91.10
2017-12-10T07:26:50.458Z,91.10
2017-12-10T07:29:16.632Z,91.20
2017-12-10T07:31:42.787Z,91.30
2017-12-10T07:34:08.955Z,91.10
2017-12-10T07:36:35.112Z,91.10
2017-12-10T07:39:01.272Z,91.40
2017-12-10T07:41:27.650Z,91.00
2017-12-10T07:43:53.857Z,91.10
2017-12-10T07:46:20.974Z,91.20
2017-12-10T07:48:47.214Z,90.60
2017-12-10T07:51:17.796Z,91.00
2017-12-10T07:53:47.550Z,91.10
2017-12-10T07:56:14.249Z,90.90
2017-12-10T07:58:41.799Z,90.70
2017-12-10T08:01:07.966Z,90.70
2017-12-10T08:03:34.135Z,90.90
2017-12-10T08:06:01.116Z,90.80
2017-12-10T08:08:32.424Z,91.20
2017-12-10T08:11:01.602Z,91.10
2017-12-10T08:13:28.530Z,90.80
2017-12-10T08:15:54.880Z,90.70
2017-12-10T08:18:21.036Z,90.50
2017-12-10T08:20:47.923Z,90.40
2017-12-10T08:23:14.144Z,90.70
2017-12-10T08:25:40.308Z,90.60
2017-12-10T08:28:06.510Z,90.70
2017-12-10T08:30:32.660Z,90.50
2017-12-10T08:32:58.778Z,90.30
2017-12-10T08:35:24.959Z,90.50
2017-12-10T08:37:51.122Z,90.50
2017-12-10T08:40:17.322Z,90.50
2017-12-10T08:42:43.483Z,90.30
2017-12-10T08:45:09.669Z,90.40
2017-12-10T08:47:35.823Z,90.50
2017-12-10T08:50:02.347Z,89.90
2017-12-10T08:52:28.565Z,90.20
2017-12-10T08:54:54.904Z,89.90
2017-12-10T08:57:21.829Z,90.00
2017-12-10T08:59:48.102Z,89.90
2017-12-10T09:02:15.019Z,90.00
2017-12-10T09:04:41.217Z,89.90
2017-12-10T09:07:07.390Z,90.40
2017-12-10T09:09:34.322Z,90.10
2017-12-10T09:12:00.487Z,90.10
2017-12-10T09:14:26.670Z,89.90
2017-12-10T09:16:55.990Z,89.20
2017-12-10T09:19:22.375Z,89.60
2017-12-10T09:21:48.670Z,90.00
2017-12-10T09:24:15.895Z,88.90
2017-12-10T09:26:43.104Z,88.70
2017-12-10T09:29:12.148Z,89.60
2017-12-10T09:31:43.548Z,88.80
2017-12-10T09:34:12.396Z,89.70
2017-12-10T09:36:40.848Z,88.60
2017-12-10T09:39:09.604Z,87.30
2017-12-10T09:41:38.732Z,86.80
2017-12-10T09:44:07.935Z,87.00
2017-12-10T09:46:35.635Z,87.00
2017-12-10T09:49:02.141Z,86.20
2017-12-10T09:51:28.490Z,85.40
2017-12-10T09:53:55.060Z,85.00
2017-12-10T09:56:29.018Z,84.20
2017-12-10T09:58:55.632Z,82.90
2017-12-10T10:01:22.694Z,83.40
2017-12-10T10:03:49.038Z,82.80
2017-12-10T10:06:15.984Z,84.50
2017-12-10T10:08:43.022Z,83.50
2017-12-10T10:11:09.204Z,83.40
2017-12-10T10:13:35.514Z,84.10
2017-12-10T10:16:01.732Z,84.30
2017-12-10T10:18:27.911Z,85.20
2017-12-10T10:20:54.049Z,84.50
2017-12-10T10:23:20.203Z,84.90
2017-12-10T10:25:46.429Z,84.80
2017-12-10T10:28:12.596Z,84.40
2017-12-10T10:30:38.803Z,85.40
2017-12-10T10:33:04.975Z,85.30
2017-12-10T10:35:31.212Z,85.20
2017-12-10T10:37:57.365Z,85.40
2017-12-10T10:40:24.032Z,84.60
2017-12-10T10:42:50.205Z,84.40
2017-12-10T10:45:17.143Z,83.10
2017-12-10T10:47:43.512Z,83.10
2017-12-10T10:50:09.954Z,82.40
2017-12-10T10:52:36.191Z,82.00
2017-12-10T10:55:02.614Z,81.00
2017-12-10T10:57:28.781Z,81.30
2017-12-10T10:59:54.942Z,80.10
2017-12-10T11:02:21.114Z,79.20
2017-12-10T11:04:47.278Z,80.00
2017-12-10T11:07:14.290Z,79.40
2017-12-10T11:09:40.438Z,80.10
2017-12-10T11:12:06.676Z,79.80
2017-12-10T11:14:34.035Z,80.00
2017-12-10T11:17:00.428Z,79.90
2017-12-10T11:19:26.636Z,80.60
2017-12-10T11:21:52.837Z,81.90
2017-12-10T11:24:21.176Z,81.90
2017-12-10T11:26:48.640Z,82.70
2017-12-10T11:29:14.987Z,82.00
2017-12-10T11:31:45.285Z,81.70
2017-12-10T11:34:14.301Z,81.60
2017-12-10T11:36:42.473Z,81.40
2017-12-10T11:39:09.385Z,81.40
2017-12-10T11:41:43.843Z,82.30
2017-12-10T11:44:18.014Z,82.70
2017-12-10T11:46:50.448Z,82.60
2017-12-10T11:49:24.044Z,81.70
2017-12-10T11:51:57.065Z,81.70
2017-12-10T11:54:30.220Z,82.70
2017-12-10T11:57:03.554Z,83.40
2017-12-10T11:59:36.371Z,82.40
2017-12-10T12:02:12.217Z,82.30
2017-12-10T12:04:47.570Z,81.60
2017-12-10T12:07:21.885Z,81.20
2017-12-10T12:09:58.781Z,80.90
2017-12-10T12:12:31.399Z,80.60
2017-12-10T12:15:06.304Z,81.40
2017-12-10T12:17:40.076Z,81.50
2017-12-10T12:20:13.347Z,80.60
2017-12-10T12:22:47.611Z,80.60
2017-12-10T12:25:20.988Z,80.70
2017-12-10T12:27:55.201Z,81.70
2017-12-10T12:30:29.920Z,81.70
2017-12-10T12:33:03.491Z,81.30
2017-12-10T12:35:38.095Z,81.60
2017-12-10T12:38:12.501Z,82.50
2017-12-10T12:40:44.847Z,82.20
2017-12-10T12:43:17.921Z,80.20
2017-12-10T12:45:50.593Z,80.40
2017-12-10T12:48:24.307Z,81.10
2017-12-10T12:50:56.768Z,81.10
2017-12-10T12:53:29.107Z,83.70
2017-12-10T12:56:03.574Z,82.00
2017-12-10T12:58:36.074Z,81.90
2017-12-10T13:01:08.605Z,82.10
2017-12-10T13:03:40.871Z,82.00
2017-12-10T13:06:14.359Z,82.70
2017-12-10T13:08:46.963Z,83.40
2017-12-10T13:11:19.866Z,82.50
2017-12-10T13:13:53.690Z,83.00
2017-12-10T13:16:29.648Z,82.60
2017-12-10T13:19:02.041Z,82.50
2017-12-10T13:21:36.482Z,82.70
2017-12-10T13:24:10.573Z,82.70
2017-12-10T13:26:43.471Z,83.00
2017-12-10T13:29:17.279Z,82.30
2017-12-10T13:31:51.210Z,83.30
2017-12-10T13:34:24.461Z,83.10
2017-12-10T13:36:59.163Z,81.70
2017-12-10T13:39:32.290Z,83.10
2017-12-10T13:42:06.268Z,82.40
2017-12-10T13:44:40.430Z,82.60
2017-12-10T13:47:13.555Z,82.40
2017-12-10T13:49:47.834Z,82.20
2017-12-10T13:52:21.047Z,80.80
2017-12-10T13:54:54.548Z,81.30
2017-12-10T13:57:27.806Z,80.40
2017-12-10T14:00:03.373Z,82.20
2017-12-10T14:02:36.506Z,81.20
2017-12-10T14:05:10.262Z,79.90
2017-12-10T14:07:46.349Z,79.90
2017-12-10T14:10:21.652Z,78.90
2017-12-10T14:13:03.793Z,79.30
2017-12-10T14:15:39.651Z,79.40
2017-12-10T14:18:13.905Z,81.00
2017-12-10T14:20:48.488Z,80.00
2017-12-10T14:23:22.942Z,79.70
2017-12-10T14:25:56.714Z,79.20
2017-12-10T14:28:36.896Z,80.40
2017-12-10T14:31:11.080Z,79.40
2017-12-10T14:33:45.685Z,80.20
2017-12-10T14:36:18.339Z,81.60
2017-12-10T14:38:50.635Z,80.00
2017-12-10T14:41:22.878Z,80.90
2017-12-10T14:43:55.351Z,80.50
2017-12-10T14:46:30.803Z,80.50
2017-12-10T14:49:03.032Z,80.30
2017-12-10T14:51:35.383Z,80.50
2017-12-10T14:54:07.834Z,81.40
2017-12-10T14:56:40.203Z,80.60
2017-12-10T14:59:12.629Z,80.10
2017-12-10T15:01:44.992Z,80.80
2017-12-10T15:04:17.405Z,81.90
2017-12-10T15:06:49.739Z,80.50
2017-12-10T15:09:22.840Z,80.30
2017-12-10T15:11:55.431Z,79.60
2017-12-10T15:14:28.068Z,80.40
2017-12-10T15:17:01.159Z,79.80
2017-12-10T15:19:34.063Z,79.70
2017-12-10T15:22:06.419Z,79.40
2017-12-10T15:24:38.949Z,79.00
2017-12-10T15:27:12.918Z,78.80
2017-12-10T15:29:45.315Z,78.70
2017-12-10T15:32:17.661Z,78.00
2017-12-10T15:34:50.131Z,77.80
2017-12-10T15:37:22.450Z,80.10
2017-12-10T15:39:54.880Z,78.30
2017-12-10T15:42:27.228Z,78.30
2017-12-10T15:44:59.596Z,79.80
2017-12-10T15:47:32.776Z,78.50
2017-12-10T15:50:05.061Z,77.90
2017-12-10T15:52:37.320Z,76.50
2017-12-10T15:55:09.832Z,76.70
2017-12-10T15:57:42.885Z,76.60
2017-12-10T16:00:15.400Z,76.50
2017-12-10T16:02:47.629Z,77.40
2017-12-10T16:05:20.043Z,77.40
2017-12-10T16:07:52.419Z,78.50
2017-12-10T16:10:24.927Z,77.60
2017-12-10T16:12:57.294Z,77.20
2017-12-10T16:15:29.656Z,78.20
2017-12-10T16:18:02.746Z,77.90
2017-12-10T16:20:35.780Z,78.50
2017-12-10T16:23:08.003Z,78.70
2017-12-10T16:25:40.450Z,77.60
2017-12-10T16:28:12.655Z,77.80
2017-12-10T16:30:45.107Z,77.00
2017-12-10T16:33:17.482Z,77.10
2017-12-10T16:35:49.756Z,78.10
2017-12-10T16:38:22.023Z,78.00
2017-12-10T16:40:55.147Z,78.10
2017-12-10T16:43:27.507Z,78.10
2017-12-10T16:46:00.576Z,80.50
2017-12-10T16:48:33.035Z,80.50
2017-12-10T16:51:05.508Z,78.20
2017-12-10T16:53:37.863Z,80.70
2017-12-10T16:56:10.372Z,81.60
2017-12-10T16:58:43.494Z,86.00
2017-12-10T17:01:15.900Z,86.00
2017-12-10T17:03:48.240Z,89.10
2017-12-10T17:06:20.611Z,90.50
2017-12-10T17:08:53.003Z,90.70
2017-12-10T17:11:25.347Z,91.60
2017-12-10T17:13:58.534Z,93.20
2017-12-10T17:16:31.015Z,93.10
2017-12-10T17:19:03.471Z,93.30
2017-12-10T17:21:36.588Z,94.40
2017-12-10T17:24:09.745Z,94.50
2017-12-10T17:26:42.079Z,94.50
2017-12-10T17:29:14.503Z,95.00
2017-12-10T17:31:46.892Z,95.10
2017-12-10T17:34:19.232Z,95.10
2017-12-10T17:36:51.597Z,95.40
2017-12-10T17:39:24.664Z,95.90
2017-12-10T17:41:57.016Z,95.90
2017-12-10T17:44:29.299Z,95.70
2017-12-10T17:47:01.730Z,95.90
2017-12-10T17:49:34.088Z,95.70
2017-12-10T17:52:07.239Z,95.80
2017-12-10T17:54:39.471Z,95.50
2017-12-10T17:57:12.635Z,95.60
2017-12-10T17:59:45.598Z,95.60
2017-12-10T18:02:18.013Z,95.60
2017-12-10T18:04:51.484Z,95.50
2017-12-10T18:07:23.943Z,95.50
2017-12-10T18:09:56.378Z,95.80
2017-12-10T18:12:28.772Z,95.70
2017-12-10T18:15:01.267Z,95.80
2017-12-10T18:17:33.503Z,95.70
2017-12-10T18:20:05.887Z,96.10
2017-12-10T18:22:39.095Z,96.00
2017-12-10T18:25:11.310Z,95.90
2017-12-10T18:27:43.601Z,95.90
2017-12-10T18:30:15.934Z,95.90
2017-12-10T18:32:48.461Z,95.80
2017-12-10T18:35:20.732Z,95.50
2017-12-10T18:37:53.210Z,95.40
2017-12-10T18:40:26.229Z,95.40
2017-12-10T18:42:59.483Z,95.40
2017-12-10T18:45:31.872Z,95.40
2017-12-10T18:48:04.216Z,95.30
2017-12-10T18:50:37.403Z,95.90
2017-12-10T18:53:09.886Z,95.60
2017-12-10T18:55:43.106Z,95.20
2017-12-10T18:58:15.342Z,95.20
2017-12-10T19:00:47.725Z,95.40
2017-12-10T19:03:20.184Z,95.00
2017-12-10T19:05:52.477Z,95.10
2017-12-10T19:08:24.903Z,95.10
2017-12-10T19:10:57.384Z,94.90
2017-12-10T19:13:30.538Z,94.80
2017-12-10T19:16:02.859Z,94.80
2017-12-10T19:18:35.213Z,94.90
2017-12-10T19:21:08.352Z,94.70
2017-12-10T19:23:41.550Z,94.80
2017-12-10T19:26:13.924Z,94.80
2017-12-10T19:28:47.106Z,94.70
2017-12-10T19:31:19.551Z,94.60
2017-12-10T19:33:52.700Z,94.60
2017-12-10T19:36:25.362Z,94.60
2017-12-10T19:38:58.643Z,95.00
2017-12-10T19:41:30.912Z,95.00
2017-12-10T19:44:03.393Z,94.70
2017-12-10T19:46:35.779Z,94.80
2017-12-10T19:49:08.263Z,94.60
2017-12-10T19:51:40.632Z,95.00
2017-12-10T19:54:13.933Z,94.90
2017-12-10T19:56:46.286Z,94.90
2017-12-10T19:59:18.814Z,95.00
2017-12-10T20:01:51.205Z,95.10
2017-12-10T20:04:23.636Z,95.10
2017-12-10T20:06:56.670Z,95.40
2017-12-10T20:09:29.715Z,95.60
2017-12-10T20:11:57.046Z,95.50
2017-12-10T20:14:23.223Z,95.50
2017-12-10T20:16:49.452Z,95.70
2017-12-10T20:19:15.832Z,95.80
2017-12-10T20:21:42.056Z,95.90
2017-12-10T20:24:08.244Z,95.80
2017-12-10T20:26:34.401Z,96.10
2017-12-10T20:29:01.378Z,96.40
2017-12-10T20:31:28.290Z,96.70
2017-12-10T20:33:54.580Z,96.60
2017-12-10T20:36:21.003Z,96.70
2017-12-10T20:38:48.159Z,96.70
2017-12-10T20:41:14.397Z,96.60
2017-12-10T20:43:40.564Z,96.70
2017-12-10T20:46:06.743Z,96.80
2017-12-10T20:48:33.065Z,96.80
2017-12-10T20:50:59.259Z,97.00
2017-12-10T20:53:25.540Z,97.30
2017-12-10T20:55:51.712Z,97.20
2017-12-10T20:58:17.930Z,97.50
2017-12-10T21:00:44.143Z,97.30
2017-12-10T21:03:11.074Z,97.60
2017-12-10T21:05:37.345Z,97.60
2017-12-10T21:08:03.577Z,97.70
2017-12-10T21:10:29.959Z,97.70
2017-12-10T21:12:56.463Z,97.60
2017-12-10T21:15:22.717Z,97.60
2017-12-10T21:17:48.929Z,97.60
2017-12-10T21:20:15.429Z,97.80
2017-12-10T21:22:41.692Z,97.80
2017-12-10T21:25:07.872Z,97.80
2017-12-10T21:27:34.139Z,97.80
2017-12-10T21:30:00.374Z,97.90
2017-12-10T21:32:26.770Z,97.80
2017-12-10T21:34:54.613Z,98.00
2017-12-10T21:37:22.959Z,98.00
2017-12-10T21:39:49.177Z,98.00
2017-12-10T21:42:15.351Z,98.20
2017-12-10T21:44:41.539Z,98.30
2017-12-10T21:47:07.805Z,98.40
2017-12-10T21:49:33.971Z,98.40
2017-12-10T21:52:00.384Z,98.40
2017-12-10T21:54:27.319Z,98.40
2017-12-10T21:56:53.478Z,98.40
2017-12-10T21:59:19.730Z,98.20
2017-12-10T22:01:46.635Z,98.30
2017-12-10T22:04:12.922Z,98.20
2017-12-10T22:06:39.132Z,98.30
2017-12-10T22:09:06.051Z,98.50
2017-12-10T22:11:32.229Z,98.50
2017-12-10T22:13:58.614Z,98.60
2017-12-10T22:16:24.791Z,98.60
2017-12-10T22:18:50.980Z,98.80
2017-12-10T22:21:17.904Z,98.80
2017-12-10T22:23:44.089Z,98.80
2017-12-10T22:26:10.264Z,98.80
2017-12-10T22:28:36.455Z,98.80
2017-12-10T22:31:02.674Z,98.80
2017-12-10T22:33:28.836Z,98.70
2017-12-10T22:35:55.027Z,98.70
2017-12-10T22:38:21.175Z,98.70
2017-12-10T22:40:47.628Z,98.60
2017-12-10T22:43:13.819Z,98.50
2017-12-10T22:45:40.022Z,98.50
2017-12-10T22:48:06.208Z,98.60
2017-12-10T22:50:32.374Z,98.60
2017-12-10T22:52:58.563Z,98.60
2017-12-10T22:55:24.749Z,98.50
2017-12-10T22:57:51.782Z,98.80
2017-12-10T23:00:17.998Z,98.60
2017-12-10T23:02:44.844Z,98.70
2017-12-10T23:05:11.136Z,98.60
2017-12-10T23:07:38.072Z,98.60
2017-12-10T23:10:04.216Z,98.60
2017-12-10T23:12:42.366Z,98.70
2017-12-10T23:15:14.606Z,98.70
2017-12-10T23:17:40.796Z,98.70
2017-12-10T23:20:07.015Z,98.60
2017-12-10T23:22:33.212Z,98.50
2017-12-10T23:24:59.883Z,98.60
2017-12-10T23:27:26.039Z,98.60
2017-12-10T23:29:52.955Z,98.70
2017-12-10T23:32:19.183Z,98.70
2017-12-10T23:34:45.358Z,98.70
2017-12-10T23:37:11.539Z,98.70
2017-12-10T23:39:37.732Z,98.70
2017-12-10T23:42:03.895Z,98.80
2017-12-10T23:44:31.012Z,98.70
2017-12-10T23:46:57.171Z,98.70
2017-12-10T23:49:23.369Z,98.70
2017-12-10T23:51:49.585Z,99.00
2017-12-10T23:54:15.750Z,98.70
2017-12-10T23:56:41.958Z,98.80
2017-12-10T23:59:08.118Z,98.50
